• Join FlightAware (Why Join?)
  • Login
  • US Flag 
08:34PM EST


 

Airport Tracker/Info


-or-


 

Live Flight TrackerFlight Track Log ✈ RPA3496 ✈ 15-May-2014 ✈ KLGA - KPIT

Flight Track Log - Related Links

Times and Time Zones

All times are in EDT time to prevent confusion due to time zone crossing. See the RPA3496 flight status page for this flight to view local times or setup timezone preferences in your user account.

Time Position Orientation Groundspeed Altitude Reporting Facility
EDT Latitude Longitude Course Direction KTS MPH feet Rate Location/Type
05:34PM 40.7500 -73.8333 270° West 146 168 2,300  Level New York TRACON
05:35PM 40.7000 -73.8333 180° South 214 246 4,800 2,940 Climbing New York TRACON
05:36PM 40.7712 -74.1974 269° West  Level Estimated
05:36PM 40.6833 -73.9167 255° West 246 283 8,200  Level New York TRACON
05:37PM 40.7689 -74.3056 268° West  Level Estimated
05:37PM 40.7333 -74.0000 308° West 312 359 10,500  Level New York TRACON
05:38PM 40.7828 -74.4123 280° West  Level FlightAware Approximate
05:38PM 40.8167 -74.0667 329° Northwest 338 389 12,500  Level New York TRACON
05:39PM 40.7834 -74.4333 270° West  Level FlightAware Approximate
05:39PM 40.8500 -74.1500 298° West 326 375 15,000  Level New York TRACON
05:40PM 40.8167 -74.2500 246° West 302 348 15,000 480 Level New York TRACON
05:41PM 40.7833 -74.3500 246° West 325 374 16,000 900 Climbing New York TRACON
05:42PM 40.8500 -74.4500 311° West 334 384 17,000 480 Climbing New York TRACON
05:43PM 40.9167 -74.5333 317° Northwest 336 387 17,000  Level New York TRACON
05:44PM 40.9167 -74.6500 270° West 329 379 17,000  Level New York TRACON
05:45PM 40.8822 -74.8111 254° West 359 413 17,000 660 Level New York Center
05:46PM 40.8531 -74.9272 252° West 364 419 18,600 1,740 Climbing New York Center
05:47PM 40.8214 -75.0542 252° West 364 419 20,500 1,740 Climbing New York Center
05:48PM 40.7936 -75.1894 255° West 370 426 22,200 1,800 Climbing New York Center
05:49PM 40.7708 -75.3469 259° West 397 457 24,300 1,440 Climbing New York Center
05:50PM 40.7369 -75.4708 250° West 402 463 25,100 1,080 Climbing New York Center
05:51PM 40.6833 -75.6067 243° Southwest 402 463 26,500 1,260 Climbing New York Center
05:52PM 40.6364 -75.7372 245° Southwest 408 470 27,600 720 Climbing New York Center
05:53PM 40.5847 -75.8731 243° Southwest 414 476 28,000 180 Climbing New York Center
05:54PM 40.5217 -76.0239 241° Southwest 420 483 28,000  Level New York Center
05:55PM 40.4814 -76.1356 245° Southwest 425 489 28,000  Level New York Center
05:56PM 40.4269 -76.2786 243° Southwest 420 483 28,000  Level New York Center
05:57PM 40.3747 -76.4106 243° Southwest 420 483 28,000  Level New York Center
05:58PM 40.3247 -76.5400 243° Southwest 415 478 28,000  Level New York Center
05:59PM 40.2728 -76.6636 241° Southwest 405 466 28,000  Level New York Center
06:00PM 40.2122 -76.7889 238° Southwest 400 460 28,000  Level New York Center
06:01PM 40.1306 -76.8794 220° Southwest 395 455 28,000  Level New York Center
06:02PM 40.0600 -76.9900 230° Southwest 395 455 28,000 -60 Level New York Center
06:03PM 40.0458 -77.1408 263° West 391 450 27,900 -360 Descending New York Center
06:04PM 40.0336 -77.2886 264° West 405 466 27,400 -900 Descending New York Center
06:05PM 40.0189 -77.4367 263° West 412 474 26,100 -1,620 Descending New York Center
06:06PM 39.9931 -77.6314 260° West 411 473 23,800 -1,800 Descending Cleveland Center
06:07PM 39.9567 -77.7683 251° West 403 464 22,100 -900 Descending Cleveland Center
06:09PM 39.9611 -77.9144 272° West 406 467 22,000 -60 Descending Cleveland Center
06:10PM 39.9814 -78.0592 280° West 409 471 22,000  Level Cleveland Center
06:11PM 40.0017 -78.2061 280° West 409 471 22,000  Level Cleveland Center
06:12PM 40.0211 -78.3503 280° West 407 468 22,000  Level Cleveland Center
06:13PM 40.0439 -78.5208 280° West 403 464 22,000  Level Cleveland Center
06:14PM 40.0625 -78.6644 280° West 403 464 22,000 -420 Level Cleveland Center
06:15PM 40.0822 -78.8092 280° West 403 464 21,200 -1,260 Descending Cleveland Center
06:16PM 40.1000 -78.9475 280° West 395 455 19,400 -1,800 Descending Cleveland Center
06:17PM 40.1200 -79.1031 280° West 381 438 17,500 -1,800 Descending Cleveland Center
06:18PM 40.1372 -79.2350 280° West 358 412 15,800 -1,560 Descending Cleveland Center
06:19PM 40.1517 -79.3556 279° West 355 409 14,300 -1,500 Descending Cleveland Center
06:20PM 40.1669 -79.4800 279° West 350 403 12,800 -1,620 Descending Cleveland Center
06:21PM 40.2103 -79.5917 297° West 349 402 11,000 -1,380 Descending Cleveland Center
06:22PM 40.2692 -79.6836 310° West 333 383 10,000 -1,620 Descending Cleveland Center
06:23PM 40.3306 -79.7806 310° West 296 341 7,700 -1,980 Descending Cleveland Center
06:24PM 40.3817 -79.8631 309° West 295 339 6,000 -1,260 Descending Cleveland Center
06:25PM 40.4319 -79.9411 310° West 287 330 5,100 -960 Descending Cleveland Center
06:26PM 40.4767 -80.0150 309° West 269 310 4,100 -1,140 Descending Cleveland Center
06:27PM 40.4825 -80.0958 275° West 191 220 2,800 -1,020 Descending Cleveland Center
06:28PM 40.4836 -80.1428 272° West 137 158 2,100 -660 Descending Cleveland Center
06:29PM 40.4844 -80.1900 271° West 132 152 1,500 -600 Descending Cleveland Center
06:31PM 40.4833 -80.2167 276° West  Level FlightAware Approximate
06:38PM 40.4914 -80.2327 304° West  Level Estimated